sensor_id;sensor_type;location;lat;lon;timestamp;pressure;altitude;pressure_sealevel;temperature;humidity
18813;BME280;9534;51.140;6.296;2023-10-31T00:00:31;67946.06;;;11.08;100.00
18813;BME280;9534;51.140;6.296;2023-10-31T00:04:34;67945.47;;;11.07;100.00
18813;BME280;9534;51.140;6.296;2023-10-31T00:08:38;67941.50;;;11.04;100.00
18813;BME280;9534;51.140;6.296;2023-10-31T00:12:44;67934.06;;;10.97;100.00
18813;BME280;9534;51.140;6.296;2023-10-31T00:16:49;67929.34;;;10.91;100.00
18813;BME280;9534;51.140;6.296;2023-10-31T00:20:52;67911.38;;;10.80;100.00
18813;BME280;9534;51.140;6.296;2023-10-31T00:24:55;67901.66;;;10.71;100.00
18813;BME280;9534;51.140;6.296;2023-10-31T00:28:59;67899.09;;;10.64;100.00
18813;BME280;9534;51.140;6.296;2023-10-31T00:33:03;67898.50;;;10.64;100.00
18813;BME280;9534;51.140;6.296;2023-10-31T00:37:06;67906.38;;;10.68;100.00
18813;BME280;9534;51.140;6.296;2023-10-31T00:41:09;67904.94;;;10.72;100.00
18813;BME280;9534;51.140;6.296;2023-10-31T00:45:13;67911.22;;;10.77;100.00
18813;BME280;9534;51.140;6.296;2023-10-31T00:49:16;67915.66;;;10.79;100.00
18813;BME280;9534;51.140;6.296;2023-10-31T00:53:19;67919.06;;;10.82;100.00
18813;BME280;9534;51.140;6.296;2023-10-31T00:57:22;67917.50;;;10.83;100.00
18813;BME280;9534;51.140;6.296;2023-10-31T01:01:26;67921.78;;;10.82;100.00
18813;BME280;9534;51.140;6.296;2023-10-31T01:05:30;67919.06;;;10.82;100.00
18813;BME280;9534;51.140;6.296;2023-10-31T01:09:33;67918.50;;;10.81;100.00
18813;BME280;9534;51.140;6.296;2023-10-31T01:13:36;67912.50;;;10.81;100.00
18813;BME280;9534;51.140;6.296;2023-10-31T01:17:40;67917.94;;;10.81;100.00
18813;BME280;9534;51.140;6.296;2023-10-31T01:21:44;67919.06;;;10.82;100.00
18813;BME280;9534;51.140;6.296;2023-10-31T01:25:47;67916.78;;;10.80;100.00
18813;BME280;9534;51.140;6.296;2023-10-31T01:29:50;67908.78;;;10.73;100.00
18813;BME280;9534;51.140;6.296;2023-10-31T01:33:54;67915.91;;;10.74;100.00
18813;BME280;9534;51.140;6.296;2023-10-31T01:37:58;67908.78;;;10.73;100.00
18813;BME280;9534;51.140;6.296;2023-10-31T01:42:02;67903.38;;;10.73;100.00
18813;BME280;9534;51.140;6.296;2023-10-31T01:46:05;67908.78;;;10.73;100.00
18813;BME280;9534;51.140;6.296;2023-10-31T01:50:11;67898.81;;;10.69;100.00
18813;BME280;9534;51.140;6.296;2023-10-31T01:54:16;67900.81;;;10.66;100.00
18813;BME280;9534;51.140;6.296;2023-10-31T01:58:23;67897.97;;;10.63;100.00
18813;BME280;9534;51.140;6.296;2023-10-31T02:02:28;67904.22;;;10.69;100.00
18813;BME280;9534;51.140;6.296;2023-10-31T02:06:36;67905.78;;;10.68;100.00
18813;BME280;9534;51.140;6.296;2023-10-31T02:10:42;67887.38;;;10.59;100.00
18813;BME280;9534;51.140;6.296;2023-10-31T02:14:47;67879.81;;;10.50;100.00
18813;BME280;9534;51.140;6.296;2023-10-31T02:18:50;67882.81;;;10.45;100.00
18813;BME280;9534;51.140;6.296;2023-10-31T02:22:55;67874.81;;;10.48;100.00
18813;BME280;9534;51.140;6.296;2023-10-31T02:26:58;67878.69;;;10.49;100.00
18813;BME280;9534;51.140;6.296;2023-10-31T02:31:02;67884.69;;;10.49;100.00
18813;BME280;9534;51.140;6.296;2023-10-31T02:35:24;67882.53;;;10.50;100.00
18813;BME280;9534;51.140;6.296;2023-10-31T02:39:29;67884.38;;;10.54;100.00
18813;BME280;9534;51.140;6.296;2023-10-31T02:43:32;67888.25;;;10.55;100.00
18813;BME280;9534;51.140;6.296;2023-10-31T02:47:37;67896.66;;;10.60;100.00
18813;BME280;9534;51.140;6.296;2023-10-31T02:51:40;67892.38;;;10.61;100.00
18813;BME280;9534;51.140;6.296;2023-10-31T02:55:45;67887.97;;;10.59;100.00
18813;BME280;9534;51.140;6.296;2023-10-31T02:59:48;67896.22;;;10.62;100.00
18813;BME280;9534;51.140;6.296;2023-10-31T03:03:52;67900.81;;;10.66;100.00
18813;BME280;9534;51.140;6.296;2023-10-31T03:07:55;67898.50;;;10.64;100.00
18813;BME280;9534;51.140;6.296;2023-10-31T03:12:00;67899.09;;;10.64;100.00
18813;BME280;9534;51.140;6.296;2023-10-31T03:16:03;67898.81;;;10.69;100.00
18813;BME280;9534;51.140;6.296;2023-10-31T03:20:06;67902.22;;;10.72;100.00
18813;BME280;9534;51.140;6.296;2023-10-31T03:24:11;67901.38;;;10.66;100.00
18813;BME280;9534;51.140;6.296;2023-10-31T03:28:19;67899.81;;;10.67;100.00
18813;BME280;9534;51.140;6.296;2023-10-31T03:32:25;67911.94;;;10.71;100.00
18813;BME280;9534;51.140;6.296;2023-10-31T03:36:28;67907.78;;;10.74;100.00
18813;BME280;9534;51.140;6.296;2023-10-31T03:40:32;67914.50;;;10.78;100.00
18813;BME280;9534;51.140;6.296;2023-10-31T03:44:36;67912.94;;;10.79;100.00
18813;BME280;9534;51.140;6.296;2023-10-31T03:48:39;67919.19;;;10.84;100.00
18813;BME280;9534;51.140;6.296;2023-10-31T03:52:42;67919.34;;;10.87;100.00
18813;BME280;9534;51.140;6.296;2023-10-31T03:56:47;67925.50;;;10.90;100.00
18813;BME280;9534;51.140;6.296;2023-10-31T04:00:52;67923.34;;;10.90;100.00
18813;BME280;9534;51.140;6.296;2023-10-31T04:04:56;67940.47;;;10.96;100.00
18813;BME280;9534;51.140;6.296;2023-10-31T04:08:59;67934.06;;;10.97;100.00
18813;BME280;9534;51.140;6.296;2023-10-31T04:13:02;67932.34;;;10.96;100.00
18813;BME280;9534;51.140;6.296;2023-10-31T04:17:06;67925.78;;;10.95;100.00
18813;BME280;9534;51.140;6.296;2023-10-31T04:21:09;67935.06;;;10.96;100.00
18813;BME280;9534;51.140;6.296;2023-10-31T04:25:12;67932.78;;;10.94;100.00
18813;BME280;9534;51.140;6.296;2023-10-31T04:29:15;67936.19;;;10.97;100.00
18813;BME280;9534;51.140;6.296;2023-10-31T04:33:20;67928.50;;;10.95;100.00
18813;BME280;9534;51.140;6.296;2023-10-31T04:37:23;67925.34;;;10.97;100.00
18813;BME280;9534;51.140;6.296;2023-10-31T04:41:26;67930.06;;;10.94;100.00
18813;BME280;9534;51.140;6.296;2023-10-31T04:45:30;67935.63;;;10.96;100.00
18813;BME280;9534;51.140;6.296;2023-10-31T04:49:35;67932.91;;;10.96;100.00
18813;BME280;9534;51.140;6.296;2023-10-31T04:53:40;67932.78;;;10.94;100.00
18813;BME280;9534;51.140;6.296;2023-10-31T04:57:43;67939.47;;;10.97;100.00
18813;BME280;9534;51.140;6.296;2023-10-31T05:01:49;67931.22;;;10.95;100.00
18813;BME280;9534;51.140;6.296;2023-10-31T05:05:55;67928.34;;;10.92;100.00
18813;BME280;9534;51.140;6.296;2023-10-31T05:09:58;67929.34;;;10.91;100.00
18813;BME280;9534;51.140;6.296;2023-10-31T05:14:01;67908.78;;;10.73;100.00
18813;BME280;9534;51.140;6.296;2023-10-31T05:18:05;67890.53;;;10.57;100.00
18813;BME280;9534;51.140;6.296;2023-10-31T05:22:10;67878.25;;;10.51;100.00
18813;BME280;9534;51.140;6.296;2023-10-31T05:26:13;67891.38;;;10.53;100.00
18813;BME280;9534;51.140;6.296;2023-10-31T05:30:16;67888.81;;;10.55;100.00
18813;BME280;9534;51.140;6.296;2023-10-31T05:34:19;67882.69;;;10.52;100.00
18813;BME280;9534;51.140;6.296;2023-10-31T05:38:23;67890.94;;;10.55;100.00
18813;BME280;9534;51.140;6.296;2023-10-31T05:42:26;67883.97;;;10.56;100.00
18813;BME280;9534;51.140;6.296;2023-10-31T05:46:29;67883.97;;;10.56;100.00
18813;BME280;9534;51.140;6.296;2023-10-31T05:50:32;67889.38;;;10.56;100.00
18813;BME280;9534;51.140;6.296;2023-10-31T05:54:36;67893.22;;;10.57;100.00
18813;BME280;9534;51.140;6.296;2023-10-31T05:58:39;67885.97;;;10.53;100.00
18813;BME280;9534;51.140;6.296;2023-10-31T06:02:42;67880.53;;;10.53;100.00
18813;BME280;9534;51.140;6.296;2023-10-31T06:06:46;67890.94;;;10.55;100.00
18813;BME280;9534;51.140;6.296;2023-10-31T06:10:50;67888.94;;;10.58;100.00
18813;BME280;9534;51.140;6.296;2023-10-31T06:14:53;67888.53;;;10.60;100.00
18813;BME280;9534;51.140;6.296;2023-10-31T06:18:58;67883.81;;;10.53;100.00
18813;BME280;9534;51.140;6.296;2023-10-31T06:23:01;67864.56;;;10.39;100.00
18813;BME280;9534;51.140;6.296;2023-10-31T06:27:06;67858.00;;;10.28;100.00
18813;BME280;9534;51.140;6.296;2023-10-31T06:31:09;67843.31;;;10.18;100.00
18813;BME280;9534;51.140;6.296;2023-10-31T06:35:12;67841.16;;;10.18;100.00
18813;BME280;9534;51.140;6.296;2023-10-31T06:39:15;67841.03;;;10.16;100.00
18813;BME280;9534;51.140;6.296;2023-10-31T06:43:20;67839.47;;;10.17;100.00
18813;BME280;9534;51.140;6.296;2023-10-31T06:47:23;67842.72;;;10.17;100.00
18813;BME280;9534;51.140;6.296;2023-10-31T06:51:26;67844.31;;;10.16;100.00
18813;BME280;9534;51.140;6.296;2023-10-31T06:55:29;67844.03;;;10.21;100.00
18813;BME280;9534;51.140;6.296;2023-10-31T06:59:35;67840.59;;;10.18;100.00
18813;BME280;9534;51.140;6.296;2023-10-31T07:03:38;67842.19;;;10.17;100.00
18813;BME280;9534;51.140;6.296;2023-10-31T07:07:41;67844.47;;;10.19;100.00
18813;BME280;9534;51.140;6.296;2023-10-31T07:11:44;67847.16;;;10.19;100.00
18813;BME280;9534;51.140;6.296;2023-10-31T07:15:49;67845.72;;;10.22;100.00
18813;BME280;9534;51.140;6.296;2023-10-31T07:19:52;67856.28;;;10.27;100.00
18813;BME280;9534;51.140;6.296;2023-10-31T07:23:55;67863.56;;;10.31;100.00
18813;BME280;9534;51.140;6.296;2023-10-31T07:27:58;67858.41;;;10.36;100.00
18813;BME280;9534;51.140;6.296;2023-10-31T07:32:03;67868.84;;;10.38;100.00
18813;BME280;9534;51.140;6.296;2023-10-31T07:36:09;67865.56;;;10.37;100.00
18813;BME280;9534;51.140;6.296;2023-10-31T07:40:12;67877.97;;;10.46;100.00
18813;BME280;9534;51.140;6.296;2023-10-31T07:44:15;67885.25;;;10.50;100.00
18813;BME280;9534;51.140;6.296;2023-10-31T07:48:20;67885.97;;;10.53;100.00
18813;BME280;9534;51.140;6.296;2023-10-31T07:52:23;67884.38;;;10.54;100.00
18813;BME280;9534;51.140;6.296;2023-10-31T07:56:26;67894.38;;;10.58;100.00
18813;BME280;9534;51.140;6.296;2023-10-31T08:00:30;67895.09;;;10.61;100.00
18813;BME280;9534;51.140;6.296;2023-10-31T08:04:36;67896.22;;;10.62;100.00
18813;BME280;9534;51.140;6.296;2023-10-31T08:08:39;67893.94;;;10.60;100.00
18813;BME280;9534;51.140;6.296;2023-10-31T08:12:42;67893.53;;;10.62;100.00
18813;BME280;9534;51.140;6.296;2023-10-31T08:16:46;67895.81;;;10.64;100.00
18813;BME280;9534;51.140;6.296;2023-10-31T08:20:51;67899.22;;;10.67;100.00
18813;BME280;9534;51.140;6.296;2023-10-31T08:24:55;67904.22;;;10.69;100.00
18813;BME280;9534;51.140;6.296;2023-10-31T08:28:58;67905.38;;;10.70;100.00
18813;BME280;9534;51.140;6.296;2023-10-31T08:33:01;67916.06;;;10.77;100.00
18813;BME280;9534;51.140;6.296;2023-10-31T08:37:06;67916.78;;;10.80;100.00
18813;BME280;9534;51.140;6.296;2023-10-31T08:41:11;67941.06;;;11.06;100.00
18813;BME280;9534;51.140;6.296;2023-10-31T08:45:20;68003.16;;;11.57;100.00
18813;BME280;9534;51.140;6.296;2023-10-31T08:49:26;68030.63;;;11.81;100.00
18813;BME280;9534;51.140;6.296;2023-10-31T08:53:30;68033.34;;;11.81;100.00
18813;BME280;9534;51.140;6.296;2023-10-31T08:57:33;68048.91;;;11.97;100.00
18813;BME280;9534;51.140;6.296;2023-10-31T09:01:38;68040.59;;;11.95;100.00
18813;BME280;9534;51.140;6.296;2023-10-31T09:05:42;68056.47;;;12.06;100.00
18813;BME280;9534;51.140;6.296;2023-10-31T09:09:48;68095.78;;;12.38;100.00
18813;BME280;9534;51.140;6.296;2023-10-31T09:13:51;68057.03;;;12.07;100.00
18813;BME280;9534;51.140;6.296;2023-10-31T09:17:54;68132.22;;;12.77;100.00
18813;BME280;9534;51.140;6.296;2023-10-31T09:21:58;68128.94;;;12.67;100.00
18813;BME280;9534;51.140;6.296;2023-10-31T09:26:03;68190.88;;;13.23;100.00
18813;BME280;9534;51.140;6.296;2023-10-31T09:30:07;68121.94;;;12.68;100.00
18813;BME280;9534;51.140;6.296;2023-10-31T09:34:10;68106.50;;;12.45;100.00
18813;BME280;9534;51.140;6.296;2023-10-31T09:38:13;68135.38;;;12.75;100.00
18813;BME280;9534;51.140;6.296;2023-10-31T09:42:18;68114.06;;;12.54;100.00
18813;BME280;9534;51.140;6.296;2023-10-31T09:46:21;68089.06;;;12.34;100.00
18813;BME280;9534;51.140;6.296;2023-10-31T09:50:26;68089.06;;;12.34;100.00
18813;BME280;9534;51.140;6.296;2023-10-31T09:54:31;68070.19;;;12.18;100.00
18813;BME280;9534;51.140;6.296;2023-10-31T09:58:35;68089.34;;;12.30;100.00
18813;BME280;9534;51.140;6.296;2023-10-31T10:02:39;68110.91;;;12.56;100.00
18813;BME280;9534;51.140;6.296;2023-10-31T10:06:49;68114.06;;;12.54;100.00
18813;BME280;9534;51.140;6.296;2023-10-31T10:10:55;68124.38;;;12.63;100.00
18813;BME280;9534;51.140;6.296;2023-10-31T10:14:59;68106.06;;;12.47;100.00
18813;BME280;9534;51.140;6.296;2023-10-31T10:19:14;68111.78;;;12.52;100.00
18813;BME280;9534;51.140;6.296;2023-10-31T10:23:18;68141.09;;;12.80;100.00
18813;BME280;9534;51.140;6.296;2023-10-31T10:27:22;68136.53;;;12.76;100.00
18813;BME280;9534;51.140;6.296;2023-10-31T10:31:29;68128.94;;;12.67;100.00
18813;BME280;9534;51.140;6.296;2023-10-31T10:35:33;68123.94;;;12.65;100.00
18813;BME280;9534;51.140;6.296;2023-10-31T10:39:36;68241.81;;;13.67;100.00
18813;BME280;9534;51.140;6.296;2023-10-31T10:43:42;68342.34;;;14.60;100.00
18813;BME280;9534;51.140;6.296;2023-10-31T10:47:48;68277.31;;;13.98;100.00
18813;BME280;9534;51.140;6.296;2023-10-31T10:51:52;68236.53;;;13.60;100.00
18813;BME280;9534;51.140;6.296;2023-10-31T10:55:57;68246.97;;;13.72;100.00
18813;BME280;9534;51.140;6.296;2023-10-31T11:00:03;68232.66;;;13.59;100.00
18813;BME280;9534;51.140;6.296;2023-10-31T11:04:11;68179.28;;;13.11;100.00
18813;BME280;9534;51.140;6.296;2023-10-31T11:08:18;68160.09;;;12.99;100.00
18813;BME280;9534;51.140;6.296;2023-10-31T11:12:23;68141.22;;;12.82;100.00
18813;BME280;9534;51.140;6.296;2023-10-31T11:16:29;68158.09;;;12.92;100.00
18813;BME280;9534;51.140;6.296;2023-10-31T11:20:34;68162.25;;;12.98;100.00
18813;BME280;9534;51.140;6.296;2023-10-31T11:24:38;68202.19;;;13.31;100.00
18813;BME280;9534;51.140;6.296;2023-10-31T11:28:44;68185.72;;;13.19;100.00
18813;BME280;9534;51.140;6.296;2023-10-31T11:32:48;68213.91;;;13.46;100.00
18813;BME280;9534;51.140;6.296;2023-10-31T11:36:54;68190.63;;;13.18;100.00
18813;BME280;9534;51.140;6.296;2023-10-31T11:41:17;68204.59;;;13.35;100.00
18813;BME280;9534;51.140;6.296;2023-10-31T11:45:28;68203.75;;;13.30;100.00
18813;BME280;9534;51.140;6.296;2023-10-31T11:49:47;68194.03;;;13.21;100.00
18813;BME280;9534;51.140;6.296;2023-10-31T11:53:53;68158.81;;;12.95;100.00
18813;BME280;9534;51.140;6.296;2023-10-31T11:57:57;68164.25;;;12.95;100.00
18813;BME280;9534;51.140;6.296;2023-10-31T12:02:01;68184.16;;;13.20;100.00
18813;BME280;9534;51.140;6.296;2023-10-31T12:06:16;68208.06;;;13.29;100.00
18813;BME280;9534;51.140;6.296;2023-10-31T12:10:23;68238.81;;;13.62;100.00
18813;BME280;9534;51.140;6.296;2023-10-31T12:14:29;68311.69;;;14.28;100.00
18813;BME280;9534;51.140;6.296;2023-10-31T12:18:32;68296.78;;;14.15;100.00
18813;BME280;9534;51.140;6.296;2023-10-31T12:22:36;68286.63;;;14.09;100.00
18813;BME280;9534;51.140;6.296;2023-10-31T12:26:40;68332.75;;;14.44;100.00
18813;BME280;9534;51.140;6.296;2023-10-31T12:30:46;68387.31;;;14.94;100.00
18813;BME280;9534;51.140;6.296;2023-10-31T12:34:50;68314.00;;;14.30;100.00
18813;BME280;9534;51.140;6.296;2023-10-31T12:38:55;68327.75;;;14.42;100.00
18813;BME280;9534;51.140;6.296;2023-10-31T12:43:00;68339.19;;;14.52;100.00
18813;BME280;9534;51.140;6.296;2023-10-31T12:47:06;68321.31;;;14.34;100.00
18813;BME280;9534;51.140;6.296;2023-10-31T12:51:10;68360.69;;;14.66;100.00
18813;BME280;9534;51.140;6.296;2023-10-31T12:55:14;68486.41;;;15.78;100.00
18813;BME280;9534;51.140;6.296;2023-10-31T12:59:21;68388.03;;;14.97;100.00
18813;BME280;9534;51.140;6.296;2023-10-31T13:03:24;68345.81;;;14.53;100.00
18813;BME280;9534;51.140;6.296;2023-10-31T13:07:28;68339.19;;;14.52;100.00
18813;BME280;9534;51.140;6.296;2023-10-31T13:11:31;68464.16;;;15.61;100.00
18813;BME280;9534;51.140;6.296;2023-10-31T13:15:38;68483.81;;;15.80;100.00
18813;BME280;9534;51.140;6.296;2023-10-31T13:19:41;68507.19;;;15.98;100.00
18813;BME280;9534;51.140;6.296;2023-10-31T13:23:44;68559.13;;;16.38;100.00
18813;BME280;9534;51.140;6.296;2023-10-31T13:27:49;68586.97;;;16.67;100.00
18813;BME280;9534;51.140;6.296;2023-10-31T13:31:56;68663.03;;;17.38;100.00
18813;BME280;9534;51.140;6.296;2023-10-31T13:35:59;68719.56;;;17.80;100.00
18813;BME280;9534;51.140;6.296;2023-10-31T13:40:03;68694.81;;;17.68;100.00
18813;BME280;9534;51.140;6.296;2023-10-31T13:44:07;68662.06;;;17.30;100.00
18813;BME280;9534;51.140;6.296;2023-10-31T13:48:12;68579.53;;;16.61;100.00
18813;BME280;9534;51.140;6.296;2023-10-31T13:52:17;68428.59;;;15.30;100.00
18813;BME280;9534;51.140;6.296;2023-10-31T13:56:21;68477.94;;;15.73;100.00
18813;BME280;9534;51.140;6.296;2023-10-31T14:00:24;68556.69;;;16.43;100.00
18813;BME280;9534;51.140;6.296;2023-10-31T14:04:31;68675.44;;;17.44;100.00
18813;BME280;9534;51.140;6.296;2023-10-31T14:08:36;68510.19;;;16.03;100.00
18813;BME280;9534;51.140;6.296;2023-10-31T14:12:41;68390.75;;;14.97;100.00
18813;BME280;9534;51.140;6.296;2023-10-31T14:16:47;68347.63;;;14.57;100.00
18813;BME280;9534;51.140;6.296;2023-10-31T14:20:53;68293.06;;;14.07;100.00
18813;BME280;9534;51.140;6.296;2023-10-31T14:24:55;68294.38;;;14.11;100.00
18813;BME280;9534;51.140;6.296;2023-10-31T14:28:58;68317.28;;;14.31;100.00
18813;BME280;9534;51.140;6.296;2023-10-31T14:33:02;68309.84;;;14.24;100.00
18813;BME280;9534;51.140;6.296;2023-10-31T14:37:07;68262.84;;;13.83;100.00
18813;BME280;9534;51.140;6.296;2023-10-31T14:41:11;68239.81;;;13.61;100.00
18813;BME280;9534;51.140;6.296;2023-10-31T14:45:16;68226.22;;;13.52;100.00
18813;BME280;9534;51.140;6.296;2023-10-31T14:49:19;68207.91;;;13.36;100.00
18813;BME280;9534;51.140;6.296;2023-10-31T14:53:23;68202.31;;;13.33;100.00
18813;BME280;9534;51.140;6.296;2023-10-31T14:57:27;68198.88;;;13.30;100.00
18813;BME280;9534;51.140;6.296;2023-10-31T15:01:30;68191.44;;;13.24;100.00
18813;BME280;9534;51.140;6.296;2023-10-31T15:05:34;68178.31;;;13.12;100.00
18813;BME280;9534;51.140;6.296;2023-10-31T15:09:39;68170.56;;;13.01;100.00
18813;BME280;9534;51.140;6.296;2023-10-31T15:13:42;68166.13;;;12.99;100.00
18813;BME280;9534;51.140;6.296;2023-10-31T15:17:45;68144.25;;;12.78;100.00
18813;BME280;9534;51.140;6.296;2023-10-31T15:21:49;68068.03;;;12.09;100.00
18813;BME280;9534;51.140;6.296;2023-10-31T15:25:55;68016.75;;;11.67;100.00
18813;BME280;9534;51.140;6.296;2023-10-31T15:29:59;68001.31;;;11.53;100.00
18813;BME280;9534;51.140;6.296;2023-10-31T15:34:04;67994.88;;;11.45;100.00
18813;BME280;9534;51.140;6.296;2023-10-31T15:38:07;67981.88;;;11.36;100.00
18813;BME280;9534;51.140;6.296;2023-10-31T15:42:13;67985.31;;;11.39;100.00
18813;BME280;9534;51.140;6.296;2023-10-31T15:46:16;67975.31;;;11.35;100.00
18813;BME280;9534;51.140;6.296;2023-10-31T15:50:22;67974.16;;;11.34;100.00
18813;BME280;9534;51.140;6.296;2023-10-31T15:54:25;67986.75;;;11.36;100.00
18813;BME280;9534;51.140;6.296;2023-10-31T15:58:29;67976.88;;;11.34;100.00
18813;BME280;9534;51.140;6.296;2023-10-31T16:02:32;67973.59;;;11.34;100.00
18813;BME280;9534;51.140;6.296;2023-10-31T16:06:35;67975.59;;;11.31;100.00
18813;BME280;9534;51.140;6.296;2023-10-31T16:10:38;67965.59;;;11.27;100.00
18813;BME280;9534;51.140;6.296;2023-10-31T16:14:43;67968.16;;;11.24;100.00
18813;BME280;9534;51.140;6.296;2023-10-31T16:18:46;67973.16;;;11.26;100.00
18813;BME280;9534;51.140;6.296;2023-10-31T16:22:49;67964.19;;;11.21;100.00
18813;BME280;9534;51.140;6.296;2023-10-31T16:26:52;67970.75;;;11.22;100.00
18813;BME280;9534;51.140;6.296;2023-10-31T16:30:57;67971.03;;;11.27;100.00
18813;BME280;9534;51.140;6.296;2023-10-31T16:35:00;67966.88;;;11.30;100.00
18813;BME280;9534;51.140;6.296;2023-10-31T16:39:03;67977.31;;;11.32;100.00
18813;BME280;9534;51.140;6.296;2023-10-31T16:43:06;67979.03;;;11.34;100.00
18813;BME280;9534;51.140;6.296;2023-10-31T16:47:11;67984.16;;;11.38;100.00
18813;BME280;9534;51.140;6.296;2023-10-31T16:51:15;67983.44;;;11.35;100.00
18813;BME280;9534;51.140;6.296;2023-10-31T16:55:18;67974.47;;;11.30;100.00
18813;BME280;9534;51.140;6.296;2023-10-31T16:59:21;67979.16;;;11.36;100.00
18813;BME280;9534;51.140;6.296;2023-10-31T17:03:26;67967.31;;;11.28;100.00
18813;BME280;9534;51.140;6.296;2023-10-31T17:07:29;67976.88;;;11.34;100.00
18813;BME280;9534;51.140;6.296;2023-10-31T17:11:32;67975.75;;;11.33;100.00
18813;BME280;9534;51.140;6.296;2023-10-31T17:15:35;67976.88;;;11.34;100.00
18813;BME280;9534;51.140;6.296;2023-10-31T17:19:40;67981.31;;;11.36;100.00
18813;BME280;9534;51.140;6.296;2023-10-31T17:23:44;67984.16;;;11.38;100.00
18813;BME280;9534;51.140;6.296;2023-10-31T17:27:47;67982.47;;;11.37;100.00
18813;BME280;9534;51.140;6.296;2023-10-31T17:31:51;67981.44;;;11.38;100.00
18813;BME280;9534;51.140;6.296;2023-10-31T17:35:57;67986.44;;;11.40;100.00
18813;BME280;9534;51.140;6.296;2023-10-31T17:40:00;67991.59;;;11.45;100.00
18813;BME280;9534;51.140;6.296;2023-10-31T17:44:05;67992.16;;;11.45;100.00
18813;BME280;9534;51.140;6.296;2023-10-31T17:48:08;67985.59;;;11.44;100.00
18813;BME280;9534;51.140;6.296;2023-10-31T17:52:13;67987.88;;;11.46;100.00
18813;BME280;9534;51.140;6.296;2023-10-31T17:56:16;67990.16;;;11.48;100.00
18813;BME280;9534;51.140;6.296;2023-10-31T18:00:20;67992.75;;;11.46;100.00
18813;BME280;9534;51.140;6.296;2023-10-31T18:04:24;67984.44;;;11.43;100.00
18813;BME280;9534;51.140;6.296;2023-10-31T18:08:28;67986.44;;;11.40;100.00
18813;BME280;9534;51.140;6.296;2023-10-31T18:12:31;67979.88;;;11.39;100.00
18813;BME280;9534;51.140;6.296;2023-10-31T18:16:35;67984.75;;;11.39;100.00
18813;BME280;9534;51.140;6.296;2023-10-31T18:20:38;67971.44;;;11.34;100.00
18813;BME280;9534;51.140;6.296;2023-10-31T18:24:43;67974.88;;;11.28;100.00
18813;BME280;9534;51.140;6.296;2023-10-31T18:28:46;67963.44;;;11.27;100.00
18813;BME280;9534;51.140;6.296;2023-10-31T18:32:49;67975.03;;;11.30;100.00
18813;BME280;9534;51.140;6.296;2023-10-31T18:36:53;67970.75;;;11.31;100.00
18813;BME280;9534;51.140;6.296;2023-10-31T18:40:57;67973.59;;;11.34;100.00
18813;BME280;9534;51.140;6.296;2023-10-31T18:45:01;67980.47;;;11.40;100.00
18813;BME280;9534;51.140;6.296;2023-10-31T18:49:04;67984.44;;;11.43;100.00
18813;BME280;9534;51.140;6.296;2023-10-31T18:53:08;67989.88;;;11.43;100.00
18813;BME280;9534;51.140;6.296;2023-10-31T18:57:13;67995.16;;;11.50;100.00
18813;BME280;9534;51.140;6.296;2023-10-31T19:01:16;67997.88;;;11.50;100.00
18813;BME280;9534;51.140;6.296;2023-10-31T19:05:20;67996.31;;;11.51;100.00
18813;BME280;9534;51.140;6.296;2023-10-31T19:09:25;67991.03;;;11.44;100.00
18813;BME280;9534;51.140;6.296;2023-10-31T19:13:30;67983.31;;;11.42;100.00
18813;BME280;9534;51.140;6.296;2023-10-31T19:17:33;67987.31;;;11.46;100.00
18813;BME280;9534;51.140;6.296;2023-10-31T19:21:36;67999.03;;;11.51;100.00
18813;BME280;9534;51.140;6.296;2023-10-31T19:25:39;67999.03;;;11.51;100.00
18813;BME280;9534;51.140;6.296;2023-10-31T19:29:44;67987.59;;;11.41;100.00
18813;BME280;9534;51.140;6.296;2023-10-31T19:33:47;67991.03;;;11.44;100.00
18813;BME280;9534;51.140;6.296;2023-10-31T19:37:51;67985.59;;;11.44;100.00
18813;BME280;9534;51.140;6.296;2023-10-31T19:41:55;67998.03;;;11.53;100.00
18813;BME280;9534;51.140;6.296;2023-10-31T19:46:02;68005.88;;;11.57;100.00
18813;BME280;9534;51.140;6.296;2023-10-31T19:50:05;67998.47;;;11.51;100.00
18813;BME280;9534;51.140;6.296;2023-10-31T19:54:10;68005.31;;;11.57;100.00
18813;BME280;9534;51.140;6.296;2023-10-31T19:58:13;67997.03;;;11.54;100.00
18813;BME280;9534;51.140;6.296;2023-10-31T20:02:17;68005.44;;;11.59;100.00
18813;BME280;9534;51.140;6.296;2023-10-31T20:06:21;68007.56;;;11.59;100.00
18813;BME280;9534;51.140;6.296;2023-10-31T20:10:24;68021.31;;;11.71;100.00
18813;BME280;9534;51.140;6.296;2023-10-31T20:14:27;68012.47;;;11.68;100.00
18813;BME280;9534;51.140;6.296;2023-10-31T20:18:32;68010.75;;;11.66;100.00
18813;BME280;9534;51.140;6.296;2023-10-31T20:22:36;68011.91;;;11.67;100.00
18813;BME280;9534;51.140;6.296;2023-10-31T20:26:40;68017.03;;;11.72;100.00
18813;BME280;9534;51.140;6.296;2023-10-31T20:30:43;68027.63;;;11.76;100.00
18813;BME280;9534;51.140;6.296;2023-10-31T20:34:49;68020.03;;;11.77;100.00
18813;BME280;9534;51.140;6.296;2023-10-31T20:38:55;68023.31;;;11.77;100.00
18813;BME280;9534;51.140;6.296;2023-10-31T20:42:59;68017.47;;;11.70;100.00
18813;BME280;9534;51.140;6.296;2023-10-31T20:47:03;68011.91;;;11.67;100.00
18813;BME280;9534;51.140;6.296;2023-10-31T20:51:08;68018.75;;;11.73;100.00
18813;BME280;9534;51.140;6.296;2023-10-31T20:55:11;68025.63;;;11.79;100.00
18813;BME280;9534;51.140;6.296;2023-10-31T20:59:14;68032.91;;;11.83;100.00
18813;BME280;9534;51.140;6.296;2023-10-31T21:03:20;68035.91;;;11.88;100.00
18813;BME280;9534;51.140;6.296;2023-10-31T21:07:25;68032.19;;;11.80;100.00
18813;BME280;9534;51.140;6.296;2023-10-31T21:11:28;68042.19;;;11.94;100.00
18813;BME280;9534;51.140;6.296;2023-10-31T21:15:31;68030.19;;;11.83;100.00
18813;BME280;9534;51.140;6.296;2023-10-31T21:19:34;68030.75;;;11.84;100.00
18813;BME280;9534;51.140;6.296;2023-10-31T21:23:39;68023.75;;;11.75;100.00
18813;BME280;9534;51.140;6.296;2023-10-31T21:27:45;68024.19;;;11.73;100.00
18813;BME280;9534;51.140;6.296;2023-10-31T21:31:53;68022.03;;;11.74;100.00